createdAt,value
2018-08-24T00:00:19.758Z,20.50
2018-08-24T00:02:48.120Z,20.40
2018-08-24T00:05:16.559Z,20.40
2018-08-24T00:07:45.014Z,20.30
2018-08-24T00:10:13.604Z,20.30
2018-08-24T00:12:41.940Z,20.30
2018-08-24T00:15:10.280Z,20.30
2018-08-24T00:17:38.667Z,20.20
2018-08-24T00:20:07.116Z,20.20
2018-08-24T00:22:35.603Z,20.20
2018-08-24T00:25:04.043Z,20.10
2018-08-24T00:27:32.436Z,20.10
2018-08-24T00:30:00.844Z,20.00
2018-08-24T00:32:29.229Z,20.00
2018-08-24T00:34:57.559Z,20.00
2018-08-24T00:37:25.892Z,20.00
2018-08-24T00:39:54.272Z,19.90
2018-08-24T00:42:22.617Z,19.90
2018-08-24T00:44:50.910Z,19.80
2018-08-24T00:47:19.292Z,19.80
2018-08-24T00:49:47.824Z,19.80
2018-08-24T00:52:16.155Z,19.70
2018-08-24T00:54:44.488Z,19.70
2018-08-24T00:57:12.869Z,19.70
2018-08-24T00:59:41.276Z,19.60
2018-08-24T01:02:09.640Z,19.60
2018-08-24T01:04:37.998Z,19.60
2018-08-24T01:07:13.529Z,19.60
2018-08-24T01:09:42.420Z,19.60
2018-08-24T01:12:11.861Z,19.50
2018-08-24T01:14:41.942Z,19.50
2018-08-24T01:17:15.602Z,19.50
2018-08-24T01:19:44.448Z,19.50
2018-08-24T01:22:12.813Z,19.50
2018-08-24T01:24:41.212Z,19.50
2018-08-24T01:27:09.849Z,19.50
2018-08-24T01:29:40.327Z,19.50
2018-08-24T01:32:08.714Z,19.60
2018-08-24T01:34:37.884Z,19.60
2018-08-24T01:37:06.283Z,19.60
2018-08-24T01:39:35.016Z,19.70
2018-08-24T01:42:03.685Z,19.70
2018-08-24T01:44:32.044Z,19.70
2018-08-24T01:47:00.431Z,19.70
2018-08-24T01:49:28.787Z,19.80
2018-08-24T01:51:57.127Z,19.80
2018-08-24T01:54:25.490Z,19.70
2018-08-24T01:56:53.872Z,19.70
2018-08-24T01:59:22.175Z,19.70
2018-08-24T02:01:50.588Z,19.70
2018-08-24T02:04:18.913Z,19.60
2018-08-24T02:06:47.255Z,19.60
2018-08-24T02:09:15.639Z,19.60
2018-08-24T02:11:47.277Z,19.60
2018-08-24T02:14:21.067Z,19.60
2018-08-24T02:16:49.440Z,19.60
2018-08-24T02:19:17.895Z,19.60
2018-08-24T02:21:51.525Z,19.60
2018-08-24T02:24:19.856Z,19.60
2018-08-24T02:26:48.344Z,19.60
2018-08-24T02:29:16.696Z,19.60
2018-08-24T02:31:49.048Z,19.60
2018-08-24T02:34:17.575Z,19.60
2018-08-24T02:36:46.198Z,19.60
2018-08-24T02:39:17.555Z,19.60
2018-08-24T02:41:45.939Z,19.60
2018-08-24T02:44:14.349Z,19.60
2018-08-24T02:46:43.712Z,19.50
2018-08-24T02:49:12.331Z,19.50
2018-08-24T02:51:40.668Z,19.30
2018-08-24T02:54:09.061Z,19.10
2018-08-24T02:56:37.403Z,18.90
2018-08-24T02:59:05.785Z,18.70
2018-08-24T03:01:34.160Z,18.50
2018-08-24T03:04:02.485Z,18.40
2018-08-24T03:06:30.790Z,18.20
2018-08-24T03:08:59.120Z,18.00
2018-08-24T03:11:27.456Z,17.90
2018-08-24T03:13:55.819Z,17.80
2018-08-24T03:16:24.229Z,17.70
2018-08-24T03:18:52.488Z,17.70
2018-08-24T03:21:20.785Z,17.60
2018-08-24T03:23:49.116Z,17.60
2018-08-24T03:26:17.415Z,17.60
2018-08-24T03:28:45.780Z,17.50
2018-08-24T03:31:14.116Z,17.50
2018-08-24T03:33:42.430Z,17.50
2018-08-24T03:36:10.752Z,17.50
2018-08-24T03:38:39.108Z,17.50
2018-08-24T03:41:07.479Z,17.40
2018-08-24T03:43:35.824Z,17.40
2018-08-24T03:46:04.443Z,17.40
2018-08-24T03:48:33.044Z,17.40
2018-08-24T03:51:01.429Z,17.40
2018-08-24T03:53:29.790Z,17.40
2018-08-24T03:55:58.080Z,17.40
2018-08-24T03:58:26.420Z,17.30
2018-08-24T04:00:59.432Z,17.40
2018-08-24T04:03:28.844Z,17.40
2018-08-24T04:05:57.301Z,17.30
2018-08-24T04:08:25.663Z,17.30
2018-08-24T04:10:53.979Z,17.30
2018-08-24T04:13:22.336Z,17.30
2018-08-24T04:15:50.806Z,17.30
2018-08-24T04:18:19.120Z,17.30
2018-08-24T04:20:47.495Z,17.30
2018-08-24T04:23:15.786Z,17.30
2018-08-24T04:25:44.297Z,17.30
2018-08-24T04:28:12.498Z,17.30
2018-08-24T04:30:40.839Z,17.30
2018-08-24T04:33:09.184Z,17.30
2018-08-24T04:35:37.705Z,17.30
2018-08-24T04:38:06.492Z,17.30
2018-08-24T04:40:34.835Z,17.20
2018-08-24T04:43:03.148Z,17.30
2018-08-24T04:45:31.794Z,17.20
2018-08-24T04:48:00.093Z,17.20
2018-08-24T04:50:28.492Z,17.20
2018-08-24T04:52:56.820Z,17.20
2018-08-24T04:55:25.142Z,17.20
2018-08-24T04:57:53.455Z,17.10
2018-08-24T05:00:21.785Z,17.10
2018-08-24T05:02:50.095Z,17.00
2018-08-24T05:05:18.424Z,16.90
2018-08-24T05:07:46.804Z,16.90
2018-08-24T05:10:15.189Z,16.80
2018-08-24T05:12:43.600Z,16.70
2018-08-24T05:15:12.028Z,16.60
2018-08-24T05:17:40.400Z,16.50
2018-08-24T05:20:08.840Z,16.50
2018-08-24T05:22:37.277Z,16.40
2018-08-24T05:25:05.970Z,16.30
2018-08-24T05:27:34.260Z,16.30
2018-08-24T05:30:02.584Z,16.30
2018-08-24T05:32:30.940Z,16.30
2018-08-24T05:34:59.340Z,16.30
2018-08-24T05:37:27.731Z,16.20
2018-08-24T05:39:56.199Z,16.20
2018-08-24T05:42:24.546Z,16.20
2018-08-24T05:44:52.884Z,16.20
2018-08-24T05:47:21.279Z,16.10
2018-08-24T05:49:49.613Z,16.10
2018-08-24T05:52:17.959Z,16.10
2018-08-24T05:54:46.288Z,16.10
2018-08-24T05:57:14.793Z,16.10
2018-08-24T05:59:43.236Z,16.10
2018-08-24T06:02:11.614Z,16.10
2018-08-24T06:04:39.980Z,16.20
2018-08-24T06:07:08.284Z,16.20
2018-08-24T06:09:36.672Z,16.30
2018-08-24T06:12:05.024Z,16.40
2018-08-24T06:14:33.333Z,16.50
2018-08-24T06:18:04.556Z,16.50
2018-08-24T06:20:32.856Z,16.60
2018-08-24T06:23:01.197Z,16.70
2018-08-24T06:25:29.680Z,16.70
2018-08-24T06:27:58.020Z,16.80
2018-08-24T06:30:26.344Z,16.80
2018-08-24T06:32:54.769Z,16.90
2018-08-24T06:35:23.104Z,16.90
2018-08-24T06:37:51.522Z,17.00
2018-08-24T06:40:19.931Z,17.00
2018-08-24T06:42:49.260Z,17.10
2018-08-24T06:45:17.644Z,17.20
2018-08-24T06:47:45.996Z,17.20
2018-08-24T06:50:14.362Z,17.30
2018-08-24T06:52:42.681Z,17.30
2018-08-24T06:55:11.005Z,17.40
2018-08-24T06:57:39.536Z,17.40
2018-08-24T07:00:08.594Z,17.40
2018-08-24T07:02:37.000Z,17.50
2018-08-24T07:05:05.677Z,17.50
2018-08-24T07:07:33.992Z,17.50
2018-08-24T07:10:02.384Z,17.40
2018-08-24T07:12:30.720Z,17.40
2018-08-24T07:14:59.085Z,17.40
2018-08-24T07:18:04.088Z,17.40
2018-08-24T07:20:32.743Z,17.30
2018-08-24T07:23:01.336Z,17.30
2018-08-24T07:25:29.675Z,17.30
2018-08-24T07:27:58.016Z,17.30
2018-08-24T07:30:32.911Z,17.40
2018-08-24T07:33:01.226Z,17.40
2018-08-24T07:35:29.583Z,17.40
2018-08-24T07:37:57.976Z,17.40
2018-08-24T07:40:26.298Z,17.50
2018-08-24T07:42:54.612Z,17.50
2018-08-24T07:45:22.964Z,17.60
2018-08-24T07:47:51.292Z,17.60
2018-08-24T07:50:19.661Z,17.60
2018-08-24T07:52:47.960Z,17.60
2018-08-24T07:55:16.323Z,17.60
2018-08-24T07:57:44.614Z,17.60
2018-08-24T08:00:12.993Z,17.60
2018-08-24T08:02:45.736Z,17.70
2018-08-24T08:05:14.372Z,17.70
2018-08-24T08:07:42.647Z,17.80
2018-08-24T08:10:11.271Z,17.90
2018-08-24T08:12:39.644Z,18.00
2018-08-24T08:15:09.008Z,18.10
2018-08-24T08:17:38.253Z,18.20
2018-08-24T08:20:07.044Z,18.30
2018-08-24T08:22:35.603Z,18.30
2018-08-24T08:25:03.992Z,18.30
2018-08-24T08:27:32.824Z,18.30
2018-08-24T08:30:03.429Z,18.30
2018-08-24T08:32:32.181Z,18.30
2018-08-24T08:35:00.628Z,18.30
2018-08-24T08:37:28.996Z,18.40
2018-08-24T08:40:01.722Z,18.50
2018-08-24T08:42:30.297Z,18.60
2018-08-24T08:44:59.100Z,18.60
2018-08-24T08:47:27.506Z,18.70
2018-08-24T08:49:55.986Z,18.70
2018-08-24T08:52:24.357Z,18.80
2018-08-24T08:54:52.774Z,19.00
2018-08-24T08:57:21.224Z,19.10
2018-08-24T08:59:49.679Z,19.10
2018-08-24T09:02:18.031Z,19.20
2018-08-24T09:04:46.405Z,19.20
2018-08-24T09:07:14.729Z,19.20
2018-08-24T09:09:43.059Z,19.20
2018-08-24T09:12:11.345Z,19.10
2018-08-24T09:14:39.900Z,19.00
2018-08-24T09:17:13.524Z,19.00
2018-08-24T09:19:47.160Z,19.00
2018-08-24T09:22:20.922Z,19.10
2018-08-24T09:24:54.811Z,19.10
2018-08-24T09:27:29.812Z,19.20
2018-08-24T09:30:01.204Z,19.20
2018-08-24T09:32:29.642Z,19.10
2018-08-24T09:34:57.947Z,19.10
2018-08-24T09:37:36.779Z,19.00
2018-08-24T09:40:05.872Z,19.00
2018-08-24T09:42:34.341Z,19.00
2018-08-24T09:45:02.852Z,19.00
2018-08-24T09:47:36.320Z,19.00
2018-08-24T09:50:10.139Z,18.90
2018-08-24T09:52:38.644Z,18.90
2018-08-24T09:55:07.064Z,18.50
2018-08-24T09:57:35.419Z,18.10
2018-08-24T10:00:03.788Z,17.60
2018-08-24T10:02:37.437Z,17.30
2018-08-24T10:05:11.085Z,17.10
2018-08-24T10:07:45.064Z,16.90
2018-08-24T10:10:13.381Z,16.90
2018-08-24T10:12:41.900Z,16.90
2018-08-24T10:15:10.554Z,17.00
2018-08-24T10:17:38.861Z,17.10
2018-08-24T10:20:07.421Z,17.20
2018-08-24T10:22:35.887Z,17.30
2018-08-24T10:25:04.336Z,17.40
2018-08-24T10:27:32.994Z,17.50
2018-08-24T10:30:01.386Z,17.50
2018-08-24T10:32:29.720Z,17.60
2018-08-24T10:34:58.029Z,17.70
2018-08-24T10:37:26.376Z,17.90
2018-08-24T10:39:54.698Z,18.10
2018-08-24T10:42:23.019Z,18.30
2018-08-24T10:44:51.540Z,18.40
2018-08-24T10:47:19.985Z,18.50
2018-08-24T10:49:48.264Z,18.60
2018-08-24T10:52:16.630Z,18.60
2018-08-24T10:54:45.047Z,18.70
2018-08-24T10:57:13.339Z,18.80
2018-08-24T10:59:41.788Z,18.90
2018-08-24T11:02:10.152Z,18.90
2018-08-24T11:04:38.410Z,18.90
2018-08-24T11:07:06.773Z,19.10
2018-08-24T11:09:35.144Z,19.10
2018-08-24T11:12:03.468Z,19.30
2018-08-24T11:14:31.891Z,19.80
2018-08-24T11:17:00.362Z,20.30
2018-08-24T11:19:28.590Z,20.90
2018-08-24T11:21:57.013Z,21.40
2018-08-24T11:24:25.341Z,21.80
2018-08-24T11:26:53.794Z,22.20
2018-08-24T11:29:22.143Z,22.70
2018-08-24T11:31:50.391Z,22.90
2018-08-24T11:34:18.703Z,23.00
2018-08-24T11:36:47.010Z,23.00
2018-08-24T11:39:15.420Z,23.10
2018-08-24T11:41:43.955Z,23.20
2018-08-24T11:44:12.252Z,23.50
2018-08-24T11:46:40.604Z,24.00
2018-08-24T11:49:09.064Z,24.50
2018-08-24T11:51:37.467Z,24.90
2018-08-24T11:54:05.993Z,24.90
2018-08-24T11:56:34.304Z,24.70
2018-08-24T11:59:02.849Z,24.30
2018-08-24T12:01:31.204Z,23.80
2018-08-24T12:03:59.629Z,23.20
2018-08-24T12:06:28.756Z,22.90
2018-08-24T12:08:57.350Z,22.90
2018-08-24T12:11:25.750Z,23.50
2018-08-24T12:13:54.221Z,24.30
2018-08-24T12:16:22.508Z,25.10
2018-08-24T12:18:50.878Z,25.80
2018-08-24T12:21:19.389Z,25.80
2018-08-24T12:23:47.729Z,25.30
2018-08-24T12:26:16.057Z,24.70
2018-08-24T12:28:44.407Z,24.10
2018-08-24T12:31:12.757Z,23.60
2018-08-24T12:33:41.092Z,23.10
2018-08-24T12:36:14.700Z,22.70
2018-08-24T12:38:43.178Z,22.40
2018-08-24T12:41:11.920Z,22.60
2018-08-24T12:43:40.263Z,22.60
2018-08-24T12:46:08.940Z,22.40
2018-08-24T12:48:37.285Z,22.70
2018-08-24T12:51:05.709Z,23.30
2018-08-24T12:53:34.176Z,24.20
2018-08-24T12:56:02.573Z,25.10
2018-08-24T12:58:30.969Z,25.90
2018-08-24T13:00:59.361Z,26.70
2018-08-24T13:03:27.752Z,27.40
2018-08-24T13:05:56.130Z,28.00
2018-08-24T13:08:24.513Z,28.40
2018-08-24T13:10:52.905Z,28.70
2018-08-24T13:13:21.250Z,28.60
2018-08-24T13:15:49.598Z,28.40
2018-08-24T13:18:17.936Z,28.50
2018-08-24T13:20:46.608Z,28.90
2018-08-24T13:23:14.944Z,28.80
2018-08-24T13:25:43.301Z,28.30
2018-08-24T13:28:11.738Z,27.30
2018-08-24T13:30:40.157Z,26.40
2018-08-24T13:33:08.685Z,25.50
2018-08-24T13:35:38.182Z,24.80
2018-08-24T13:38:06.858Z,24.40
2018-08-24T13:40:35.315Z,24.50
2018-08-24T13:43:03.664Z,24.30
2018-08-24T13:45:32.075Z,23.90
2018-08-24T13:48:00.454Z,23.60
2018-08-24T13:50:28.881Z,23.20
2018-08-24T13:52:57.306Z,22.80
2018-08-24T13:55:25.614Z,22.50
2018-08-24T13:57:54.116Z,22.20
2018-08-24T14:00:22.485Z,21.90
2018-08-24T14:02:50.855Z,21.60
2018-08-24T14:05:19.254Z,21.40
2018-08-24T14:07:47.529Z,21.20
2018-08-24T14:10:15.914Z,21.10
2018-08-24T14:12:44.249Z,21.00
2018-08-24T14:15:12.621Z,21.00
2018-08-24T14:17:41.207Z,21.00
2018-08-24T14:20:09.600Z,21.10
2018-08-24T14:22:38.149Z,21.10
2018-08-24T14:25:06.610Z,21.20
2018-08-24T14:27:35.020Z,21.30
2018-08-24T14:30:03.397Z,21.30
2018-08-24T14:32:31.728Z,21.20
2018-08-24T14:35:00.265Z,21.10
2018-08-24T14:37:28.667Z,21.00
2018-08-24T14:39:57.026Z,20.90
2018-08-24T14:42:25.461Z,20.70
2018-08-24T14:44:53.785Z,20.60
2018-08-24T14:47:22.125Z,20.50
2018-08-24T14:49:50.801Z,20.40
2018-08-24T14:52:19.140Z,20.30
2018-08-24T14:54:47.424Z,20.20
2018-08-24T14:57:15.801Z,20.10
2018-08-24T14:59:44.363Z,20.00
2018-08-24T15:02:12.721Z,19.90
2018-08-24T15:04:41.101Z,19.80
2018-08-24T15:07:09.916Z,19.70
2018-08-24T15:09:38.280Z,19.70
2018-08-24T15:12:07.343Z,19.70
2018-08-24T15:14:35.656Z,19.80
2018-08-24T15:17:04.145Z,19.90
2018-08-24T15:19:32.514Z,19.90
2018-08-24T15:22:00.874Z,19.90
2018-08-24T15:24:29.302Z,19.90
2018-08-24T15:26:57.665Z,19.80
2018-08-24T15:29:26.093Z,19.80
2018-08-24T15:31:54.474Z,19.70
2018-08-24T15:34:22.860Z,19.60
2018-08-24T15:36:51.153Z,19.60
2018-08-24T15:39:19.475Z,19.50
2018-08-24T15:41:47.816Z,19.40
2018-08-24T15:44:16.095Z,19.30
2018-08-24T15:46:44.452Z,19.30
2018-08-24T15:49:12.765Z,19.30
2018-08-24T15:51:41.073Z,19.30
2018-08-24T15:54:09.564Z,19.20
2018-08-24T15:56:37.855Z,19.20
2018-08-24T15:59:06.254Z,19.20
2018-08-24T16:01:34.625Z,19.10
2018-08-24T16:04:02.936Z,19.10
2018-08-24T16:06:31.325Z,19.10
2018-08-24T16:08:59.682Z,19.10
2018-08-24T16:11:28.017Z,19.10
2018-08-24T16:13:56.381Z,19.00
2018-08-24T16:16:24.698Z,19.00
2018-08-24T16:18:53.067Z,19.00
2018-08-24T16:21:21.404Z,19.00
2018-08-24T16:23:49.744Z,19.00
2018-08-24T16:26:25.110Z,19.00
2018-08-24T16:28:53.879Z,19.00
2018-08-24T16:31:22.475Z,18.90
2018-08-24T16:33:54.011Z,18.90
2018-08-24T16:36:22.345Z,18.90
2018-08-24T16:38:50.701Z,18.80
2018-08-24T16:41:19.045Z,18.70
2018-08-24T16:43:47.380Z,18.70
2018-08-24T16:46:16.230Z,18.70
2018-08-24T16:48:44.660Z,18.50
2018-08-24T16:51:13.065Z,18.30
2018-08-24T16:53:41.408Z,18.10
2018-08-24T16:56:09.737Z,17.90
2018-08-24T16:58:38.060Z,17.60
2018-08-24T17:01:06.976Z,17.30
2018-08-24T17:03:35.362Z,17.10
2018-08-24T17:06:03.617Z,17.00
2018-08-24T17:08:31.945Z,16.90
2018-08-24T17:11:00.268Z,16.90
2018-08-24T17:13:28.578Z,16.90
2018-08-24T17:15:57.210Z,16.70
2018-08-24T17:18:25.535Z,16.70
2018-08-24T17:20:54.055Z,16.60
2018-08-24T17:23:22.407Z,16.50
2018-08-24T17:25:50.718Z,16.40
2018-08-24T17:28:19.077Z,16.30
2018-08-24T17:30:47.372Z,16.30
2018-08-24T17:33:15.713Z,16.10
2018-08-24T17:35:44.097Z,16.00
2018-08-24T17:38:12.447Z,16.00
2018-08-24T17:40:40.752Z,16.00
2018-08-24T17:43:09.085Z,15.90
2018-08-24T17:45:37.421Z,15.80
2018-08-24T17:48:05.912Z,15.80
2018-08-24T17:50:34.324Z,15.80
2018-08-24T17:53:02.661Z,15.80
2018-08-24T17:55:30.989Z,15.80
2018-08-24T17:57:59.837Z,15.80
2018-08-24T18:00:28.213Z,15.70
2018-08-24T18:02:56.496Z,15.70
2018-08-24T18:05:24.828Z,15.70
2018-08-24T18:07:53.150Z,15.70
2018-08-24T18:10:21.816Z,15.70
2018-08-24T18:12:50.145Z,15.70
2018-08-24T18:15:18.500Z,15.70
2018-08-24T18:17:46.801Z,15.60
2018-08-24T18:20:15.152Z,15.60
2018-08-24T18:22:43.481Z,15.60
2018-08-24T18:25:11.856Z,15.50
2018-08-24T18:27:40.284Z,15.50
2018-08-24T18:30:08.763Z,15.50
2018-08-24T18:32:37.120Z,15.50
2018-08-24T18:35:05.529Z,15.40
2018-08-24T18:37:33.891Z,15.40
2018-08-24T18:40:02.241Z,15.40
2018-08-24T18:42:31.033Z,15.30
2018-08-24T18:44:59.344Z,15.30
2018-08-24T18:47:27.688Z,15.20
2018-08-24T18:49:56.101Z,15.20
2018-08-24T18:52:24.456Z,15.20
2018-08-24T18:54:52.825Z,15.20
2018-08-24T18:57:21.274Z,15.10
2018-08-24T18:59:49.768Z,15.10
2018-08-24T19:02:18.115Z,15.10
2018-08-24T19:04:46.425Z,15.10
2018-08-24T19:07:14.968Z,15.00
2018-08-24T19:09:43.305Z,15.00
2018-08-24T19:12:16.861Z,14.90
2018-08-24T19:14:45.237Z,14.90
2018-08-24T19:17:17.912Z,14.90
2018-08-24T19:19:51.667Z,14.90
2018-08-24T19:22:20.051Z,14.90
2018-08-24T19:24:48.364Z,14.90
2018-08-24T19:27:17.702Z,14.90
2018-08-24T19:29:51.310Z,14.90
2018-08-24T19:32:19.788Z,14.90
2018-08-24T19:34:48.785Z,14.90
2018-08-24T19:37:17.325Z,14.80
2018-08-24T19:39:50.965Z,14.90
2018-08-24T19:42:24.682Z,14.80
2018-08-24T19:44:53.488Z,14.80
2018-08-24T19:47:27.136Z,14.80
2018-08-24T19:49:55.493Z,14.80
2018-08-24T19:52:24.020Z,14.80
2018-08-24T19:54:52.365Z,14.80
2018-08-24T19:57:25.908Z,14.80
2018-08-24T19:59:54.318Z,14.80
2018-08-24T20:02:22.652Z,14.80
2018-08-24T20:04:51.053Z,14.80
2018-08-24T20:07:24.627Z,14.80
2018-08-24T20:09:58.525Z,14.80
2018-08-24T20:12:28.073Z,14.90
2018-08-24T20:15:01.689Z,14.90
2018-08-24T20:17:30.693Z,14.90
2018-08-24T20:19:59.669Z,14.90
2018-08-24T20:22:28.303Z,14.80
2018-08-24T20:24:56.752Z,14.80
2018-08-24T20:27:25.041Z,14.80
2018-08-24T20:29:53.379Z,14.80
2018-08-24T20:32:21.761Z,14.80
2018-08-24T20:34:50.173Z,14.80
2018-08-24T20:37:18.555Z,14.80
2018-08-24T20:39:46.896Z,14.80
2018-08-24T20:42:15.257Z,14.80
2018-08-24T20:44:43.593Z,14.80
2018-08-24T20:47:11.978Z,14.70
2018-08-24T20:49:40.314Z,14.80
2018-08-24T20:52:08.708Z,14.70
2018-08-24T20:54:37.110Z,14.70
2018-08-24T20:57:05.913Z,14.70
2018-08-24T20:59:34.290Z,14.80
2018-08-24T21:02:02.625Z,14.70
2018-08-24T21:04:31.053Z,14.70
2018-08-24T21:06:59.404Z,14.70
2018-08-24T21:09:27.746Z,14.70
2018-08-24T21:11:56.312Z,14.70
2018-08-24T21:14:25.321Z,14.70
2018-08-24T21:16:53.782Z,14.70
2018-08-24T21:19:22.293Z,14.70
2018-08-24T21:21:50.668Z,14.70
2018-08-24T21:24:18.982Z,14.70
2018-08-24T21:26:47.577Z,14.70
2018-08-24T21:29:16.048Z,14.70
2018-08-24T21:31:44.540Z,14.70
2018-08-24T21:34:12.932Z,14.70
2018-08-24T21:36:41.456Z,14.70
2018-08-24T21:39:11.297Z,14.70
2018-08-24T21:41:40.353Z,14.70
2018-08-24T21:44:09.136Z,14.70
2018-08-24T21:46:37.489Z,14.70
2018-08-24T21:49:06.550Z,14.70
2018-08-24T21:51:35.369Z,14.70
2018-08-24T21:54:03.930Z,14.70
2018-08-24T21:56:32.228Z,14.70
2018-08-24T21:59:00.608Z,14.70
2018-08-24T22:01:28.992Z,14.60
2018-08-24T22:03:57.415Z,14.40
2018-08-24T22:06:25.788Z,14.30
2018-08-24T22:08:54.176Z,14.20
2018-08-24T22:11:22.638Z,14.10
2018-08-24T22:13:50.992Z,14.00
2018-08-24T22:16:19.300Z,13.90
2018-08-24T22:18:47.693Z,13.90
2018-08-24T22:21:16.185Z,13.70
2018-08-24T22:23:44.572Z,13.70
2018-08-24T22:26:13.022Z,13.60
2018-08-24T22:28:41.403Z,13.50
2018-08-24T22:31:09.757Z,13.40
2018-08-24T22:33:38.143Z,13.30
2018-08-24T22:36:06.502Z,13.20
2018-08-24T22:38:34.838Z,13.10
2018-08-24T22:41:03.153Z,13.10
2018-08-24T22:43:35.885Z,13.00
2018-08-24T22:46:04.720Z,12.90
2018-08-24T22:48:33.633Z,12.90
2018-08-24T22:51:02.147Z,12.80
2018-08-24T22:53:30.556Z,12.70
2018-08-24T22:55:58.897Z,12.70
2018-08-24T22:58:27.361Z,12.70
2018-08-24T23:00:55.670Z,12.70
2018-08-24T23:03:23.976Z,12.60
2018-08-24T23:05:52.320Z,12.60
2018-08-24T23:08:20.664Z,12.50
2018-08-24T23:10:49.034Z,12.60
2018-08-24T23:13:17.515Z,12.50
2018-08-24T23:15:45.872Z,12.50
2018-08-24T23:18:14.222Z,12.50
2018-08-24T23:20:42.644Z,12.50
2018-08-24T23:23:11.017Z,12.50
2018-08-24T23:25:39.394Z,12.50
2018-08-24T23:28:07.740Z,12.50
2018-08-24T23:30:36.108Z,12.50
2018-08-24T23:33:04.525Z,12.50
2018-08-24T23:35:32.967Z,12.50
2018-08-24T23:38:01.350Z,12.50
2018-08-24T23:40:29.716Z,12.50
2018-08-24T23:42:58.217Z,12.50
2018-08-24T23:45:26.590Z,12.50
2018-08-24T23:47:54.953Z,12.50
2018-08-24T23:50:23.381Z,12.50
2018-08-24T23:52:51.793Z,12.50
2018-08-24T23:55:20.153Z,12.40
2018-08-24T23:57:48.504Z,12.40
